Disclaimer

Please do not use the information listed here in-flight or in-navigation, as they are not provided to us by the airports but are provided by volunteers, so they might be outdated.

Search


Regions


Airport information page

Radio informations:
LA ROCHE INFO - 119.9 MHz

Airport informations:
Latitude: 46° 42' 07.00" N
Longitude: 001° 22' 43.05" W
Elevation: 299 feet - 91 meters
Operating hours: Remarks
Operating agency: Civil government, landing fees and diplomatic clearance may be required
Timezone: UTC+1(+2DT) - Last Sunday in March to last Sunday in October
Fuel: Jet A1, without icing nhibitor.

100/130 MIL Spec, low lead, aviation gasoline (BLUE)

Runway information:
10/28 - 5085 x 98 feet< - >1550 x 30 meters

Recent METARs:
LFRI 191600Z AUTO 04013KT CAVOK 05/M02 Q1007 TEMPO 05015G25KT
LFRI 191630Z AUTO 04013KT CAVOK 04/M02 Q1007 TEMPO 05015G25KT
LFRI 191700Z AUTO 04013KT CAVOK 03/M02 Q1007 TEMPO 05015G25KT

Airport on the map: